Terminal Aerodrome Forecast
Issued by NWS Detroit/Pontiac, MI

Home | Current Version | Previous Version | Text Only | Print | Product List | Glossary On
Versions: 1 2 3 4 5 6 7 8 9 10 11 12 13 14 15 16
153
FTUS43 KDTX 211631 AAB
TAFFNT
TAF AMD
KFNT 211631Z 2117/2212 18005KT 3SM BR OVC015
     FM211900 16005KT 2SM BR OVC008
     FM220100 12005KT 1SM -RA BR OVC004=

USA.gov is the U.S. government's official web portal to all federal, state and local government web resources and services.